Time;durP1;ratioP1;P1;durP2;ratioP2;P2;SDS_P1;SDS_P2;PMS_P1;PMS_P2;Temp;Humidity;BMP_temperature;BMP_pressure;BME280_temperature;BME280_humidity;BME280_pressure;Samples;Min_cycle;Max_cycle;Signal;HPM_P1;HPM_P2
2021/01/12 00:00:30;;;;;;;24.58;16.30;;;;;;;7.19;63.91;93647.94;4953298;28;20482;-78
2021/01/12 00:02:58;;;;;;;25.75;17.73;;;;;;;7.20;64.16;93663.44;4954329;28;20054;-80
2021/01/12 00:05:23;;;;;;;25.88;16.45;;;;;;;7.12;64.11;93645.63;4957426;28;20046;-77
2021/01/12 00:07:50;;;;;;;25.15;17.55;;;;;;;7.23;64.27;93643.75;4953228;28;20037;-78
2021/01/12 00:10:18;;;;;;;25.65;17.63;;;;;;;7.17;64.20;93619.31;4954874;28;20069;-79
2021/01/12 00:12:43;;;;;;;25.38;16.20;;;;;;;7.21;63.94;93625.59;4950112;28;20147;-78
2021/01/12 00:15:09;;;;;;;23.85;16.92;;;;;;;7.17;64.05;93619.31;4956466;28;20080;-79
2021/01/12 00:17:35;;;;;;;21.60;16.05;;;;;;;7.15;64.08;93655.59;4958490;28;20598;-79
2021/01/12 00:20:03;;;;;;;23.40;15.98;;;;;;;7.09;64.00;93648.78;4953334;28;20108;-79
2021/01/12 00:22:28;;;;;;;22.83;15.10;;;;;;;7.13;64.05;93639.31;4950767;28;20054;-78
2021/01/12 00:24:54;;;;;;;22.25;16.08;;;;;;;7.14;63.83;93633.00;4954765;28;20039;-79
2021/01/12 00:27:23;;;;;;;18.90;14.73;;;;;;;7.14;64.14;93635.63;4954603;28;20038;-78
2021/01/12 00:29:49;;;;;;;20.38;16.05;;;;;;;7.08;63.86;93610.44;4957083;28;20740;-78
2021/01/12 00:32:22;;;;;;;26.52;17.52;;;;;;;7.08;63.81;93607.03;4955296;28;20959;-79
2021/01/12 00:34:48;;;;;;;18.85;15.23;;;;;;;7.02;64.39;93611.53;4952395;28;20797;-78
2021/01/12 00:37:18;;;;;;;18.50;14.32;;;;;;;7.06;64.32;93638.03;4950695;28;20093;-79
2021/01/12 00:39:43;;;;;;;20.50;13.25;;;;;;;7.02;64.04;93621.25;4953075;28;20591;-79
2021/01/12 00:42:09;;;;;;;24.10;15.45;;;;;;;7.01;64.08;93617.81;4956100;28;20049;-79
2021/01/12 00:44:35;;;;;;;24.17;15.75;;;;;;;6.99;64.56;93617.31;4951961;28;20019;-79
2021/01/12 00:47:00;;;;;;;30.45;22.42;;;;;;;7.03;63.83;93605.22;4954114;28;20050;-79
2021/01/12 00:49:26;;;;;;;27.88;20.50;;;;;;;6.97;63.85;93595.78;4968684;28;20065;-79
2021/01/12 00:51:53;;;;;;;32.03;22.75;;;;;;;6.99;64.20;93606.78;4956661;28;20141;-79
2021/01/12 00:54:21;;;;;;;26.30;16.80;;;;;;;7.02;64.29;93621.25;4954040;28;20500;-79
2021/01/12 00:56:47;;;;;;;20.88;14.10;;;;;;;6.99;64.42;93593.66;4956813;28;20049;-80
2021/01/12 00:59:13;;;;;;;21.33;14.73;;;;;;;7.04;64.50;93598.13;4944224;28;20121;-79
2021/01/12 01:01:39;;;;;;;21.48;13.77;;;;;;;7.03;64.16;93599.16;4957904;28;20112;-80
2021/01/12 01:04:05;;;;;;;25.30;15.10;;;;;;;7.01;63.69;93607.31;4951393;28;20609;-80
2021/01/12 01:06:31;;;;;;;36.13;22.42;;;;;;;6.94;63.65;93588.44;4948861;28;20070;-79
2021/01/12 01:08:57;;;;;;;23.10;15.82;;;;;;;6.90;63.93;93595.28;4951847;28;21153;-78
2021/01/12 01:11:22;;;;;;;25.13;17.25;;;;;;;6.97;64.09;93582.66;4957804;28;20476;-78
2021/01/12 01:13:48;;;;;;;28.23;18.15;;;;;;;7.03;64.29;93583.41;4954451;28;20034;-78
2021/01/12 01:16:13;;;;;;;29.80;20.05;;;;;;;7.02;64.15;93595.75;4955421;28;20038;-78
2021/01/12 01:18:39;;;;;;;27.60;19.52;;;;;;;6.99;64.45;93598.16;4967292;28;20118;-78
2021/01/12 01:21:05;;;;;;;38.70;27.40;;;;;;;6.89;64.71;93591.09;4955227;28;20431;-78
2021/01/12 01:23:30;;;;;;;38.03;25.65;;;;;;;6.97;64.89;93604.44;4953195;28;20042;-78
2021/01/12 01:25:56;;;;;;;28.08;17.33;;;;;;;7.00;64.83;93607.56;4953088;28;20049;-78
2021/01/12 01:28:23;;;;;;;24.63;16.88;;;;;;;6.97;64.71;93603.66;4950290;28;20050;-78
2021/01/12 01:30:49;;;;;;;23.98;15.95;;;;;;;7.06;64.48;93591.53;4952581;28;20038;-78
2021/01/12 01:33:16;;;;;;;27.38;16.80;;;;;;;7.04;64.57;93608.63;4952884;28;20046;-78
2021/01/12 01:35:42;;;;;;;31.00;16.27;;;;;;;7.00;64.69;93608.38;4965796;28;20037;-78
2021/01/12 01:38:08;;;;;;;25.50;16.75;;;;;;;7.03;64.80;93607.06;4951974;28;20042;-78
2021/01/12 01:40:33;;;;;;;29.75;16.42;;;;;;;7.01;64.81;93594.19;4953169;28;20034;-78
2021/01/12 01:42:59;;;;;;;31.45;18.40;;;;;;;6.98;64.92;93605.25;4969374;28;20165;-77
2021/01/12 01:45:25;;;;;;;36.65;20.23;;;;;;;6.89;65.51;93614.75;4955581;28;20090;-77
2021/01/12 01:47:51;;;;;;;32.70;17.83;;;;;;;6.91;65.71;93602.13;4953436;28;20073;-78
2021/01/12 01:50:19;;;;;;;36.60;20.77;;;;;;;6.82;65.64;93573.00;4950133;28;20133;-77
2021/01/12 01:52:48;;;;;;;29.98;19.08;;;;;;;6.83;65.70;93587.72;4957280;28;20070;-78
2021/01/12 01:55:14;;;;;;;37.45;19.33;;;;;;;6.84;65.87;93591.88;4950607;28;20043;-78
2021/01/12 01:57:39;;;;;;;30.27;18.88;;;;;;;6.78;66.04;93573.81;4954215;28;20380;-78
2021/01/12 02:00:06;;;;;;;36.17;21.40;;;;;;;6.76;66.36;93570.66;4955270;28;20061;-77
2021/01/12 02:02:48;;;;;;;31.88;18.50;;;;;;;6.80;66.05;93571.69;4955348;28;20031;-78
2021/01/12 02:05:14;;;;;;;30.63;17.48;;;;;;;6.82;66.17;93577.47;4947757;28;20035;-78
2021/01/12 02:07:44;;;;;;;31.88;17.17;;;;;;;6.83;66.01;93555.41;4954619;28;20051;-78
2021/01/12 02:10:15;;;;;;;29.42;19.67;;;;;;;6.79;66.23;93549.13;4953674;28;20067;-78
2021/01/12 02:12:47;;;;;;;26.10;17.58;;;;;;;6.83;66.24;93545.69;4947337;28;20047;-78
2021/01/12 02:15:23;;;;;;;26.77;16.55;;;;;;;6.83;65.88;93522.06;4955394;28;20125;-78
2021/01/12 02:17:51;;;;;;;29.65;16.25;;;;;;;6.78;65.60;93505.53;4955232;28;20031;-78
2021/01/12 02:20:16;;;;;;;26.73;17.30;;;;;;;6.79;65.38;93523.63;4954932;28;20704;-78
2021/01/12 02:23:14;;;;;;;30.52;18.00;;;;;;;6.82;65.20;93523.09;4958961;28;20142;-78
2021/01/12 02:25:40;;;;;;;33.47;19.35;;;;;;;6.81;65.45;93526.00;4958558;28;20038;-78
2021/01/12 02:28:08;;;;;;;27.58;16.70;;;;;;;6.79;65.62;93515.75;4951278;28;20054;-78
2021/01/12 02:30:35;;;;;;;36.03;20.80;;;;;;;6.62;65.86;93485.66;4958591;28;20612;-78
2021/01/12 02:33:01;;;;;;;36.42;18.30;;;;;;;6.71;66.00;93512.91;4959112;28;20053;-78
2021/01/12 02:35:29;;;;;;;33.05;18.80;;;;;;;6.76;65.95;93521.56;4955316;28;21204;-78
2021/01/12 02:37:56;;;;;;;30.40;16.63;;;;;;;6.74;65.92;93504.50;4958652;28;20042;-78
2021/01/12 02:40:21;;;;;;;33.63;18.67;;;;;;;6.78;65.92;93511.56;4954208;28;20171;-78
2021/01/12 02:42:47;;;;;;;35.97;20.60;;;;;;;6.78;65.76;93495.81;4974244;28;20055;-78
2021/01/12 02:45:13;;;;;;;40.13;21.63;;;;;;;6.84;65.46;93499.19;4957467;28;20042;-78
2021/01/12 02:47:39;;;;;;;33.08;19.77;;;;;;;6.89;65.84;93501.81;4957067;28;20208;-78
2021/01/12 02:50:06;;;;;;;40.85;21.85;;;;;;;6.84;65.88;93488.69;4959099;28;20438;-78
2021/01/12 02:52:31;;;;;;;35.03;19.60;;;;;;;6.87;65.84;93483.69;4957864;28;20507;-78
2021/01/12 02:54:57;;;;;;;39.95;21.98;;;;;;;6.84;66.00;93478.94;4952234;28;20047;-78
2021/01/12 02:57:22;;;;;;;50.90;23.70;;;;;;;6.86;65.93;93476.06;4958058;28;20828;-78
2021/01/12 02:59:48;;;;;;;37.58;21.73;;;;;;;6.82;66.12;93475.81;4958456;28;20038;-78
2021/01/12 03:02:13;;;;;;;34.75;20.45;;;;;;;6.79;66.09;93486.09;4957472;28;20066;-78
2021/01/12 03:04:39;;;;;;;33.03;19.45;;;;;;;6.80;66.34;93472.69;4956235;28;20046;-78
2021/01/12 03:07:04;;;;;;;34.58;18.60;;;;;;;6.87;66.21;93488.94;4955536;28;20034;-78
2021/01/12 03:09:30;;;;;;;39.70;21.10;;;;;;;6.83;66.41;93476.63;4954537;28;20448;-78
2021/01/12 03:11:55;;;;;;;41.65;23.33;;;;;;;6.86;66.56;93474.22;4958833;28;20023;-78
2021/01/12 03:14:21;;;;;;;35.33;21.17;;;;;;;6.82;66.79;93480.28;4955158;28;20145;-78
2021/01/12 03:16:47;;;;;;;34.88;20.58;;;;;;;6.85;66.88;93498.13;4963150;28;20054;-78
2021/01/12 03:19:12;;;;;;;40.75;20.58;;;;;;;6.82;66.90;93480.28;4955062;28;20050;-78
2021/01/12 03:21:38;;;;;;;37.72;20.63;;;;;;;6.85;66.87;93479.75;4954086;28;20039;-78
2021/01/12 03:24:05;;;;;;;45.70;21.83;;;;;;;6.87;66.76;93478.41;4960012;28;20037;-78
2021/01/12 03:26:31;;;;;;;50.40;21.92;;;;;;;6.87;66.47;93467.13;4956941;28;20073;-78
2021/01/12 03:28:56;;;;;;;40.83;21.15;;;;;;;6.92;66.56;93485.47;4954661;28;20046;-77
2021/01/12 03:31:23;;;;;;;41.53;23.13;;;;;;;6.85;66.85;93474.47;4957524;28;20081;-78
2021/01/12 03:33:48;;;;;;;44.05;20.20;;;;;;;6.87;66.89;93478.41;4950093;28;20049;-78
2021/01/12 03:36:14;;;;;;;52.38;22.02;;;;;;;6.83;66.84;93468.72;4957683;28;20022;-78
2021/01/12 03:38:39;;;;;;;44.05;21.52;;;;;;;6.88;66.86;93468.69;4955990;28;20023;-78
2021/01/12 03:41:05;;;;;;;56.58;22.63;;;;;;;6.94;66.74;93472.84;4957277;28;20574;-78
2021/01/12 03:43:30;;;;;;;65.65;26.58;;;;;;;6.91;67.13;93474.19;4953938;28;20518;-78
2021/01/12 03:45:56;;;;;;;43.47;23.48;;;;;;;6.87;67.26;93467.91;4950266;28;20046;-78
2021/01/12 03:48:21;;;;;;;36.75;20.95;;;;;;;6.83;67.58;93463.47;4957232;28;20503;-78
2021/01/12 03:50:48;;;;;;;49.72;23.73;;;;;;;6.83;67.58;93464.28;4955095;28;20490;-78
2021/01/12 03:53:15;;;;;;;38.97;23.17;;;;;;;6.77;67.62;93456.69;4954294;28;20057;-78
2021/01/12 03:55:41;;;;;;;45.92;24.80;;;;;;;6.77;67.66;93469.81;4954536;28;20074;-78
2021/01/12 03:58:07;;;;;;;44.65;20.80;;;;;;;6.70;67.53;93450.94;4954326;28;20046;-78
2021/01/12 04:00:32;;;;;;;45.55;21.58;;;;;;;6.71;67.54;93436.75;4954209;28;20066;-78
2021/01/12 04:02:58;;;;;;;39.85;19.40;;;;;;;6.69;67.56;93444.94;4954763;28;20043;-77
2021/01/12 04:05:23;;;;;;;30.70;18.85;;;;;;;6.67;67.22;93452.28;4954099;28;20026;-79
2021/01/12 04:07:48;;;;;;;30.02;21.02;;;;;;;6.72;67.18;93457.50;4955115;28;20054;-79
2021/01/12 04:10:14;;;;;;;50.50;18.30;;;;;;;6.64;67.16;93452.06;4952843;28;20104;-77
2021/01/12 04:12:39;;;;;;;33.83;19.30;;;;;;;6.62;66.83;93456.78;4953244;28;21339;-79
2021/01/12 04:15:06;;;;;;;41.33;22.27;;;;;;;6.59;66.87;93433.72;4953799;28;20479;-79
2021/01/12 04:17:32;;;;;;;38.67;21.85;;;;;;;6.53;66.95;93420.63;4957884;28;20058;-79
2021/01/12 04:19:57;;;;;;;27.50;12.30;;;;;;;6.50;66.66;93402.75;4950788;28;21164;-79
2021/01/12 04:22:23;;;;;;;18.60;11.27;;;;;;;6.56;66.51;93405.34;4952905;28;20518;-79
2021/01/12 04:24:49;;;;;;;16.80;12.63;;;;;;;6.47;66.48;93416.44;4952955;28;20061;-79
2021/01/12 04:27:14;;;;;;;18.52;12.70;;;;;;;6.48;66.56;93428.50;4951793;28;20035;-79
2021/01/12 04:29:40;;;;;;;29.75;14.15;;;;;;;6.52;66.65;93432.16;4952211;28;20027;-79
2021/01/12 04:32:05;;;;;;;17.10;11.57;;;;;;;6.49;66.46;93419.59;4955325;28;20046;-79
2021/01/12 04:34:31;;;;;;;18.85;11.05;;;;;;;6.42;66.84;93413.06;4950670;28;20039;-79
2021/01/12 04:36:57;;;;;;;14.93;10.88;;;;;;;6.37;67.00;93403.38;4955828;28;20567;-78
2021/01/12 04:39:22;;;;;;;15.45;11.38;;;;;;;6.44;66.97;93422.25;4953792;28;20047;-80
2021/01/12 04:41:48;;;;;;;20.10;12.75;;;;;;;6.44;66.83;93411.75;4951920;28;20027;-79
2021/01/12 04:44:13;;;;;;;18.80;12.57;;;;;;;6.38;66.85;93407.56;4953546;28;20089;-79
2021/01/12 04:46:39;;;;;;;18.90;12.77;;;;;;;6.44;66.86;93430.13;4954912;28;20047;-79
2021/01/12 04:49:04;;;;;;;35.60;15.63;;;;;;;6.48;67.06;93439.00;4954490;28;20764;-79
2021/01/12 04:51:30;;;;;;;50.05;23.45;;;;;;;6.45;66.72;93433.53;4956086;28;20027;-79
2021/01/12 04:53:55;;;;;;;31.55;19.05;;;;;;;6.38;66.97;93433.81;4954866;28;20535;-79
2021/01/12 04:56:21;;;;;;;39.30;22.52;;;;;;;6.41;67.32;93448.22;4972397;28;20504;-79
2021/01/12 04:58:49;;;;;;;31.02;20.20;;;;;;;6.38;67.49;93439.06;4955720;28;20525;-79
2021/01/12 05:01:19;;;;;;;22.38;17.05;;;;;;;6.39;67.35;93424.91;4952653;28;20073;-78
2021/01/12 05:03:46;;;;;;;20.77;16.92;;;;;;;6.50;67.11;93428.22;4951659;28;20486;-79
2021/01/12 05:06:13;;;;;;;24.70;19.38;;;;;;;6.45;67.35;93418.53;4954842;28;20172;-78
2021/01/12 05:08:54;;;;;;;19.88;13.43;;;;;;;6.40;67.42;93447.44;4955546;28;20022;-79
2021/01/12 05:11:30;;;;;;;18.00;12.43;;;;;;;6.49;67.17;93451.09;4950640;28;20039;-79
2021/01/12 05:14:04;;;;;;;20.33;14.45;;;;;;;6.48;67.26;93439.00;4951952;28;20042;-79
2021/01/12 05:16:30;;;;;;;21.58;14.68;;;;;;;6.51;67.06;93430.59;4954809;28;20512;-79
2021/01/12 05:18:56;;;;;;;23.55;16.10;;;;;;;6.53;66.72;93425.88;4950935;28;20047;-79
2021/01/12 05:21:26;;;;;;;21.65;14.02;;;;;;;6.46;66.68;93409.63;4969245;28;20500;-79
2021/01/12 05:24:04;;;;;;;24.73;14.93;;;;;;;6.50;66.96;93410.63;4955228;28;20035;-79
2021/01/12 05:26:36;;;;;;;27.08;15.35;;;;;;;6.51;66.82;93408.81;4950540;28;20567;-79
2021/01/12 05:29:03;;;;;;;22.40;15.50;;;;;;;6.51;66.64;93411.44;4957587;28;20070;-79
2021/01/12 05:31:29;;;;;;;21.08;15.73;;;;;;;6.51;66.61;93395.66;4954396;28;20061;-79
2021/01/12 05:33:55;;;;;;;27.08;18.10;;;;;;;6.53;66.50;93383.84;4949668;28;20039;-79
2021/01/12 05:36:21;;;;;;;27.23;16.52;;;;;;;6.53;66.30;93385.69;4952209;28;20096;-79
2021/01/12 05:38:50;;;;;;;24.75;16.98;;;;;;;6.49;66.47;93392.56;4958409;28;20038;-79
2021/01/12 05:41:15;;;;;;;25.25;16.50;;;;;;;6.56;66.36;93416.63;4951886;28;20292;-79
2021/01/12 05:43:46;;;;;;;36.58;18.30;;;;;;;6.59;66.20;93412.69;4953668;28;20498;-79
2021/01/12 05:46:14;;;;;;;32.78;20.60;;;;;;;6.61;66.31;93406.09;4951597;28;20047;-76
2021/01/12 05:48:46;;;;;;;25.65;18.30;;;;;;;6.63;66.50;93403.22;4952510;28;21138;-79
2021/01/12 05:51:13;;;;;;;25.95;19.75;;;;;;;6.59;66.31;93415.34;4957824;28;20058;-80
2021/01/12 05:53:45;;;;;;;27.75;19.70;;;;;;;6.61;66.29;93421.06;4957121;28;20023;-78
2021/01/12 05:56:21;;;;;;;22.63;17.20;;;;;;;6.60;66.19;93411.66;4957853;28;20043;-79
2021/01/12 05:58:55;;;;;;;35.47;19.85;;;;;;;6.61;66.35;93405.31;4958616;28;20074;-78
2021/01/12 06:01:49;;;;;;;30.30;21.73;;;;;;;6.59;66.29;93396.94;4955813;28;20045;-79
2021/01/12 06:04:15;;;;;;;24.70;17.73;;;;;;;6.53;66.10;93389.09;4957907;28;20743;-79
2021/01/12 06:06:49;;;;;;;23.80;15.32;;;;;;;6.58;65.61;93385.66;4950855;28;20049;-79
2021/01/12 06:09:16;;;;;;;21.77;14.27;;;;;;;6.59;65.82;93391.69;4955392;28;20125;-79
2021/01/12 06:11:44;;;;;;;22.50;15.60;;;;;;;6.59;65.82;93402.19;4954528;28;20090;-78
2021/01/12 06:14:12;;;;;;;22.38;14.48;;;;;;;6.58;65.75;93416.38;4954312;28;20058;-79
2021/01/12 06:16:40;;;;;;;17.85;13.27;;;;;;;6.47;65.52;93405.94;4956781;28;20097;-79
2021/01/12 06:19:14;;;;;;;23.15;14.07;;;;;;;6.51;65.02;93400.94;4955364;28;20084;-79
2021/01/12 06:21:55;;;;;;;24.88;16.08;;;;;;;6.53;65.49;93391.72;4956012;28;20175;-79
2021/01/12 06:24:38;;;;;;;21.42;15.70;;;;;;;6.51;65.86;93391.22;4965320;28;20031;-79
2021/01/12 06:27:12;;;;;;;21.80;16.58;;;;;;;6.49;65.66;93403.06;4961818;28;20030;-78
2021/01/12 06:29:43;;;;;;;25.48;17.23;;;;;;;6.49;65.88;93379.44;4958026;28;20368;-79
2021/01/12 06:32:08;;;;;;;26.08;17.10;;;;;;;6.38;65.90;93349.84;4971141;28;20130;-79
2021/01/12 06:34:34;;;;;;;26.60;16.27;;;;;;;6.45;65.86;93366.03;4959841;28;20041;-79
2021/01/12 06:37:04;;;;;;;22.10;16.75;;;;;;;6.47;65.83;93377.06;4955404;28;20444;-79
2021/01/12 06:39:38;;;;;;;23.60;15.32;;;;;;;6.41;65.82;93365.03;4959663;28;20301;-79
2021/01/12 06:42:05;;;;;;;25.27;16.13;;;;;;;6.28;65.89;93349.13;4955872;28;20026;-78
2021/01/12 06:44:36;;;;;;;24.33;18.58;;;;;;;6.36;65.89;93362.44;4953350;28;20038;-79
2021/01/12 06:47:04;;;;;;;26.80;18.15;;;;;;;6.47;65.74;93379.69;4956434;28;20043;-79
2021/01/12 06:49:30;;;;;;;22.60;16.80;;;;;;;6.29;65.93;93337.56;4955027;28;20050;-79
2021/01/12 06:52:16;;;;;;;21.00;15.85;;;;;;;6.48;66.35;93359.47;4952028;28;20051;-79
2021/01/12 06:54:43;;;;;;;23.55;17.15;;;;;;;6.50;66.13;93357.34;4947653;28;20052;-79
2021/01/12 06:57:13;;;;;;;25.35;17.63;;;;;;;6.47;65.86;93347.41;4954370;28;20142;-79
2021/01/12 06:59:47;;;;;;;23.10;17.02;;;;;;;6.57;65.83;93378.06;4954273;28;20441;-79
2021/01/12 07:02:28;;;;;;;25.33;15.85;;;;;;;6.61;65.62;93389.56;4950263;28;20420;-79
2021/01/12 07:04:56;;;;;;;21.50;16.00;;;;;;;6.62;65.62;93385.88;4955482;28;20061;-79
2021/01/12 07:07:23;;;;;;;23.63;16.95;;;;;;;6.64;65.48;93381.16;4953358;28;20324;-78
2021/01/12 07:09:52;;;;;;;21.77;16.10;;;;;;;6.65;65.53;93372.22;4954812;28;20122;-78
2021/01/12 07:12:22;;;;;;;24.92;16.38;;;;;;;6.57;65.65;93357.84;4957149;28;20487;-78
2021/01/12 07:14:51;;;;;;;24.40;16.33;;;;;;;6.69;65.54;93375.88;4953731;28;20038;-80
2021/01/12 07:17:33;;;;;;;21.35;15.40;;;;;;;6.70;65.73;93387.94;4951965;28;20142;-79
2021/01/12 07:20:28;;;;;;;23.73;16.60;;;;;;;6.66;65.84;93376.41;4955659;28;20035;-79
2021/01/12 07:23:04;;;;;;;21.75;14.93;;;;;;;6.64;65.76;93383.78;4953583;28;20054;-78
2021/01/12 07:25:30;;;;;;;18.90;14.02;;;;;;;6.64;65.46;93368.03;4973830;28;20046;-79
2021/01/12 07:28:02;;;;;;;19.35;14.57;;;;;;;6.63;65.33;93383.00;4958883;28;20047;-79
2021/01/12 07:30:29;;;;;;;17.95;13.55;;;;;;;6.63;65.44;93374.34;4950811;28;20050;-79
2021/01/12 07:33:00;;;;;;;18.23;15.07;;;;;;;6.57;65.44;93383.31;4958284;28;20133;-79
2021/01/12 07:35:26;;;;;;;17.98;13.02;;;;;;;6.56;65.20;93402.72;4951219;28;20480;-79
2021/01/12 07:37:52;;;;;;;17.10;13.25;;;;;;;6.63;64.73;93387.47;4974345;28;20046;-79
2021/01/12 07:40:18;;;;;;;20.65;14.43;;;;;;;6.62;64.85;93391.94;4950290;28;20823;-78
2021/01/12 07:42:55;;;;;;;15.18;12.98;;;;;;;6.62;65.22;93396.41;4954794;28;20051;-79
2021/01/12 07:45:23;;;;;;;20.13;15.32;;;;;;;6.63;64.92;93390.09;4953683;28;20850;-78
2021/01/12 07:47:54;;;;;;;54.13;36.50;;;;;;;6.57;65.23;93373.59;4959026;28;20347;-79
2021/01/12 07:50:24;;;;;;;40.33;28.25;;;;;;;6.58;65.25;93382.25;4953335;28;20443;-78
2021/01/12 07:52:49;;;;;;;31.15;23.77;;;;;;;6.63;65.12;93375.13;4953188;28;20566;-79
2021/01/12 07:55:15;;;;;;;31.35;19.20;;;;;;;6.59;64.73;93352.31;4956944;28;20050;-78
2021/01/12 07:57:41;;;;;;;19.42;16.38;;;;;;;6.65;64.74;93369.59;4953109;28;20066;-78
2021/01/12 08:00:12;;;;;;;24.48;16.05;;;;;;;6.67;64.58;93370.09;4958252;28;20419;-79
2021/01/12 08:02:40;;;;;;;21.00;16.08;;;;;;;6.56;64.75;93351.00;4950570;28;20543;-81
2021/01/12 08:05:07;;;;;;;20.77;15.77;;;;;;;6.61;64.96;93373.81;4953858;28;20043;-79
2021/01/12 08:07:33;;;;;;;19.65;14.65;;;;;;;6.66;64.38;93379.03;4956027;28;20077;-79
2021/01/12 08:09:59;;;;;;;18.60;15.15;;;;;;;6.65;64.52;93370.38;4960284;28;20715;-79
2021/01/12 08:12:26;;;;;;;17.92;14.90;;;;;;;6.65;64.75;93372.22;4954193;28;20105;-79
2021/01/12 08:14:52;;;;;;;20.77;14.57;;;;;;;6.56;64.81;93363.34;4956377;28;20039;-79
2021/01/12 08:17:24;;;;;;;18.70;15.52;;;;;;;6.66;65.32;93371.16;4964798;28;20034;-79
2021/01/12 08:19:50;;;;;;;30.83;23.40;;;;;;;6.62;65.39;93344.69;4962064;28;20519;-80
2021/01/12 08:22:18;;;;;;;18.00;14.48;;;;;;;6.59;65.22;93341.81;4964748;28;20045;-79
2021/01/12 08:24:47;;;;;;;19.33;15.45;;;;;;;6.70;65.17;93351.16;4971201;28;20042;-79
2021/01/12 08:27:18;;;;;;;23.67;17.40;;;;;;;6.75;65.13;93349.28;4934839;28;20061;-79
2021/01/12 08:29:43;;;;;;;20.40;15.98;;;;;;;6.78;64.90;93345.34;4956291;28;20491;-79
2021/01/12 08:32:12;;;;;;;16.90;13.90;;;;;;;6.80;64.58;93338.75;4960702;28;20084;-79
2021/01/12 08:34:53;;;;;;;18.55;13.88;;;;;;;6.83;64.68;93340.03;4978277;28;20538;-79
2021/01/12 08:37:20;;;;;;;32.10;23.83;;;;;;;6.76;64.48;93334.31;4961581;28;20053;-80
2021/01/12 08:39:47;;;;;;;32.78;26.30;;;;;;;6.78;64.77;93340.88;4957870;28;20051;-79
2021/01/12 08:42:14;;;;;;;26.67;21.63;;;;;;;6.76;64.55;93331.69;4959038;28;20050;-79
2021/01/12 08:44:44;;;;;;;29.08;21.95;;;;;;;6.84;64.40;93346.88;4947727;28;20066;-79
2021/01/12 08:47:10;;;;;;;19.42;15.52;;;;;;;6.79;64.49;93313.53;4961035;28;20849;-81
2021/01/12 08:49:36;;;;;;;18.08;14.95;;;;;;;6.87;64.53;93320.84;4960833;28;20037;-80
2021/01/12 08:52:04;;;;;;;15.88;13.68;;;;;;;6.87;64.50;93317.41;4969566;28;20514;-80
2021/01/12 08:54:30;;;;;;;17.70;14.75;;;;;;;6.88;64.24;93322.41;4959086;28;20046;-80
2021/01/12 08:56:56;;;;;;;20.08;14.35;;;;;;;6.91;64.20;93331.56;4966279;28;20613;-80
2021/01/12 08:59:28;;;;;;;23.60;17.45;;;;;;;6.88;64.34;93309.28;4962758;28;20033;-80
2021/01/12 09:01:54;;;;;;;22.52;17.65;;;;;;;6.93;63.93;93317.09;4964124;28;20460;-80
2021/01/12 09:04:19;;;;;;;26.05;17.92;;;;;;;6.92;64.23;93305.03;4967164;28;20049;-79
2021/01/12 09:06:45;;;;;;;23.95;16.88;;;;;;;6.93;64.11;93303.97;4965219;28;20043;-79
2021/01/12 09:09:12;;;;;;;60.97;38.58;;;;;;;6.92;64.24;93307.66;4967578;28;20045;-80
2021/01/12 09:11:48;;;;;;;37.00;26.67;;;;;;;6.88;64.40;93300.59;4967020;28;20034;-80
2021/01/12 09:14:13;;;;;;;;;;;;;;;6.90;64.28;93303.72;4964850;28;20041;-79
2021/01/12 09:16:40;;;;;;;29.35;22.20;;;;;;;6.81;64.34;93292.25;4967748;28;19918;-79
2021/01/12 09:19:16;;;;;;;28.20;19.92;;;;;;;6.86;64.24;93290.38;4971176;28;20053;-79
2021/01/12 09:21:43;;;;;;;29.98;20.75;;;;;;;6.88;63.48;93290.88;4961206;28;21181;-79
2021/01/12 09:24:17;;;;;;;31.52;20.30;;;;;;;6.78;63.98;93280.47;4967366;28;20054;-80
2021/01/12 09:26:43;;;;;;;23.83;18.03;;;;;;;6.79;64.17;93284.66;4956780;28;20065;-80
2021/01/12 09:29:09;;;;;;;44.90;28.60;;;;;;;6.86;64.28;93279.06;4947051;28;20511;-79
2021/01/12 09:31:48;;;;;;;34.05;25.00;;;;;;;6.91;64.22;93268.53;4974310;28;20035;-79
2021/01/12 09:34:20;;;;;;;26.75;21.10;;;;;;;6.90;64.24;93256.44;4968314;28;20038;-80
2021/01/12 09:36:46;;;;;;;24.02;18.55;;;;;;;6.85;64.11;93249.41;4960737;28;20073;-79
2021/01/12 09:39:12;;;;;;;17.83;14.95;;;;;;;6.97;64.02;93254.28;4964631;28;20034;-79
2021/01/12 09:41:39;;;;;;;18.35;14.85;;;;;;;6.97;63.99;93256.91;4960194;28;20043;-79
2021/01/12 09:44:05;;;;;;;21.25;17.00;;;;;;;6.93;63.94;93261.94;4960660;28;20570;-79
2021/01/12 09:46:31;;;;;;;20.55;16.88;;;;;;;6.92;63.88;93249.88;4974580;28;20030;-80
2021/01/12 09:48:56;;;;;;;17.45;14.95;;;;;;;6.96;63.41;93236.94;4965994;28;20080;-79
2021/01/12 09:51:24;;;;;;;17.92;14.65;;;;;;;7.03;63.47;93234.00;4961619;28;20074;-80
2021/01/12 09:53:50;;;;;;;22.52;18.00;;;;;;;7.08;63.41;93232.09;4964339;28;20105;-81
2021/01/12 09:56:16;;;;;;;24.50;17.90;;;;;;;7.10;63.45;93237.06;4916264;28;20583;-80
2021/01/12 09:58:46;;;;;;;25.60;18.77;;;;;;;7.03;62.97;93232.16;4958669;28;20042;-79
2021/01/12 10:01:16;;;;;;;22.55;15.88;;;;;;;7.10;62.96;93219.44;4986298;28;20124;-80
2021/01/12 10:03:42;;;;;;;22.67;17.42;;;;;;;7.10;62.96;93197.66;4960257;28;20051;-80
2021/01/12 10:06:07;;;;;;;30.58;22.10;;;;;;;7.10;62.92;93187.91;4966582;28;20624;-80
2021/01/12 10:08:33;;;;;;;23.05;16.92;;;;;;;7.11;63.05;93184.25;4964523;28;20050;-79
2021/01/12 10:10:58;;;;;;;26.45;18.38;;;;;;;7.15;62.73;93177.34;4962525;28;20430;-79
2021/01/12 10:13:24;;;;;;;22.92;18.00;;;;;;;7.12;62.77;93180.56;4957548;28;20380;-79
2021/01/12 10:15:50;;;;;;;28.17;19.65;;;;;;;7.17;62.63;93187.59;4964806;28;20043;-80
2021/01/12 10:18:16;;;;;;;30.13;21.30;;;;;;;7.19;62.63;93186.22;4962218;28;20640;-79
2021/01/12 10:20:42;;;;;;;25.58;19.77;;;;;;;7.23;62.78;93192.47;4974161;28;20486;-80
2021/01/12 10:23:07;;;;;;;32.03;23.40;;;;;;;7.18;62.51;93182.06;4966471;28;20042;-79
2021/01/12 10:25:34;;;;;;;27.52;22.45;;;;;;;7.21;62.78;93184.13;4971853;28;20093;-78
2021/01/12 10:28:00;;;;;;;19.58;15.63;;;;;;;7.17;62.71;93175.25;4980693;28;20043;-78
2021/01/12 10:30:26;;;;;;;22.20;15.82;;;;;;;7.21;62.69;93178.84;4956114;28;20196;-78
2021/01/12 10:32:52;;;;;;;17.75;13.10;;;;;;;7.16;62.82;93176.28;4966580;28;20049;-78
2021/01/12 10:35:18;;;;;;;17.45;12.40;;;;;;;7.08;62.85;93158.53;4960591;28;20423;-80
2021/01/12 10:37:44;;;;;;;17.10;13.45;;;;;;;7.04;62.88;93146.25;4964639;28;20167;-80
2021/01/12 10:40:11;;;;;;;13.88;11.07;;;;;;;7.07;62.60;93148.31;4962525;28;20400;-80
2021/01/12 10:42:41;;;;;;;14.07;12.10;;;;;;;7.05;62.72;93147.78;4979975;28;20059;-78
2021/01/12 10:45:08;;;;;;;14.63;11.65;;;;;;;7.08;62.58;93152.50;4964673;28;20590;-80
2021/01/12 10:47:35;;;;;;;13.07;10.63;;;;;;;7.07;62.55;93156.97;4966190;28;20607;-79
2021/01/12 10:50:01;;;;;;;11.20;9.93;;;;;;;7.17;62.39;93158.69;4971864;28;20601;-79
2021/01/12 10:52:27;;;;;;;16.20;13.27;;;;;;;7.08;62.12;93148.03;4967981;28;20046;-79
2021/01/12 10:54:52;;;;;;;15.80;12.73;;;;;;;7.17;61.94;93156.84;4972855;28;20559;-79
2021/01/12 10:57:18;;;;;;;15.93;12.63;;;;;;;7.07;62.45;93159.59;4968031;28;20043;-80
2021/01/12 10:59:52;;;;;;;12.40;10.82;;;;;;;7.09;62.80;93169.81;4967612;28;20051;-79
2021/01/12 11:02:22;;;;;;;10.90;9.80;;;;;;;7.06;63.04;93149.38;4979352;28;20042;-80
2021/01/12 11:04:51;;;;;;;11.00;9.77;;;;;;;7.12;63.23;93143.78;4968948;28;20038;-80
2021/01/12 11:07:17;;;;;;;14.75;9.85;;;;;;;7.11;63.29;93136.94;4950766;28;20118;-79
2021/01/12 11:09:42;;;;;;;17.15;11.75;;;;;;;7.12;63.40;93141.16;4966212;28;20130;-79
2021/01/12 11:12:12;;;;;;;14.30;10.70;;;;;;;7.07;63.65;93128.06;4966617;28;20030;-79
2021/01/12 11:14:38;;;;;;;7.50;6.70;;;;;;;7.17;63.24;93135.81;4966899;28;20412;-79
2021/01/12 11:17:04;;;;;;;11.60;7.88;;;;;;;7.10;63.26;93127.50;4969348;28;20180;-80
2021/01/12 11:19:30;;;;;;;10.57;7.43;;;;;;;7.04;63.12;93110.22;4967667;28;20069;-80
2021/01/12 11:21:56;;;;;;;12.57;7.55;;;;;;;7.13;63.21;93116.44;4962328;28;20392;-80
2021/01/12 11:24:24;;;;;;;8.45;7.65;;;;;;;7.12;63.42;93104.38;4980344;28;20353;-80
2021/01/12 11:26:52;;;;;;;9.80;8.68;;;;;;;7.15;63.30;93111.66;4970733;28;20084;-79
2021/01/12 11:29:18;;;;;;;14.82;8.13;;;;;;;7.07;63.21;93112.31;4961840;28;20047;-79